sensor_id;sensor_type;location;lat;lon;timestamp;P1;durP1;ratioP1;P2;durP2;ratioP2
5085;SDS011;4715;51.660;7.082;2024-03-07T00:01:16;31.40;;;17.47;;
5085;SDS011;4715;51.660;7.082;2024-03-07T00:03:38;31.67;;;18.83;;
5085;SDS011;4715;51.660;7.082;2024-03-07T00:06:00;26.60;;;16.27;;
5085;SDS011;4715;51.660;7.082;2024-03-07T00:08:23;32.07;;;16.50;;
5085;SDS011;4715;51.660;7.082;2024-03-07T00:10:45;31.07;;;16.47;;
5085;SDS011;4715;51.660;7.082;2024-03-07T00:13:07;28.53;;;16.90;;
5085;SDS011;4715;51.660;7.082;2024-03-07T00:15:29;27.83;;;15.97;;
5085;SDS011;4715;51.660;7.082;2024-03-07T00:17:52;29.33;;;17.57;;
5085;SDS011;4715;51.660;7.082;2024-03-07T00:20:14;28.17;;;17.33;;
5085;SDS011;4715;51.660;7.082;2024-03-07T00:22:39;36.97;;;19.30;;
5085;SDS011;4715;51.660;7.082;2024-03-07T00:25:01;31.53;;;19.20;;
5085;SDS011;4715;51.660;7.082;2024-03-07T00:27:24;28.77;;;17.93;;
5085;SDS011;4715;51.660;7.082;2024-03-07T00:29:47;29.83;;;17.00;;
5085;SDS011;4715;51.660;7.082;2024-03-07T00:32:13;33.80;;;17.93;;
5085;SDS011;4715;51.660;7.082;2024-03-07T00:34:39;29.73;;;17.17;;
5085;SDS011;4715;51.660;7.082;2024-03-07T00:37:01;26.43;;;16.10;;
5085;SDS011;4715;51.660;7.082;2024-03-07T00:39:23;26.63;;;14.67;;
5085;SDS011;4715;51.660;7.082;2024-03-07T00:41:45;28.63;;;16.47;;
5085;SDS011;4715;51.660;7.082;2024-03-07T00:44:07;25.20;;;14.83;;
5085;SDS011;4715;51.660;7.082;2024-03-07T00:46:29;25.03;;;14.90;;
5085;SDS011;4715;51.660;7.082;2024-03-07T00:48:51;23.23;;;14.40;;
5085;SDS011;4715;51.660;7.082;2024-03-07T00:51:14;18.47;;;12.67;;
5085;SDS011;4715;51.660;7.082;2024-03-07T00:53:36;18.83;;;12.30;;
5085;SDS011;4715;51.660;7.082;2024-03-07T00:55:58;22.10;;;12.27;;
5085;SDS011;4715;51.660;7.082;2024-03-07T00:58:20;20.00;;;13.67;;
5085;SDS011;4715;51.660;7.082;2024-03-07T01:00:42;19.10;;;11.93;;
5085;SDS011;4715;51.660;7.082;2024-03-07T01:03:04;19.17;;;11.57;;
5085;SDS011;4715;51.660;7.082;2024-03-07T01:05:27;20.80;;;13.83;;
5085;SDS011;4715;51.660;7.082;2024-03-07T01:07:50;20.33;;;11.60;;
5085;SDS011;4715;51.660;7.082;2024-03-07T01:10:15;21.27;;;13.10;;
5085;SDS011;4715;51.660;7.082;2024-03-07T01:12:37;21.63;;;13.47;;
5085;SDS011;4715;51.660;7.082;2024-03-07T01:14:59;21.50;;;12.63;;
5085;SDS011;4715;51.660;7.082;2024-03-07T01:17:24;21.20;;;12.10;;
5085;SDS011;4715;51.660;7.082;2024-03-07T01:19:46;19.07;;;11.63;;
5085;SDS011;4715;51.660;7.082;2024-03-07T01:22:08;16.33;;;10.40;;
5085;SDS011;4715;51.660;7.082;2024-03-07T01:24:31;19.93;;;11.60;;
5085;SDS011;4715;51.660;7.082;2024-03-07T01:26:53;18.83;;;10.70;;
5085;SDS011;4715;51.660;7.082;2024-03-07T01:29:15;19.13;;;11.20;;
5085;SDS011;4715;51.660;7.082;2024-03-07T01:31:37;20.20;;;11.90;;
5085;SDS011;4715;51.660;7.082;2024-03-07T01:33:59;21.53;;;10.90;;
5085;SDS011;4715;51.660;7.082;2024-03-07T01:36:21;21.70;;;11.90;;
5085;SDS011;4715;51.660;7.082;2024-03-07T01:38:43;14.87;;;10.93;;
5085;SDS011;4715;51.660;7.082;2024-03-07T01:41:06;16.87;;;11.47;;
5085;SDS011;4715;51.660;7.082;2024-03-07T01:43:27;16.63;;;10.80;;
5085;SDS011;4715;51.660;7.082;2024-03-07T01:45:51;18.67;;;10.80;;
5085;SDS011;4715;51.660;7.082;2024-03-07T01:48:24;15.33;;;11.07;;
5085;SDS011;4715;51.660;7.082;2024-03-07T01:50:48;17.80;;;10.97;;
5085;SDS011;4715;51.660;7.082;2024-03-07T01:53:12;17.60;;;11.10;;
5085;SDS011;4715;51.660;7.082;2024-03-07T01:55:35;15.13;;;9.60;;
5085;SDS011;4715;51.660;7.082;2024-03-07T01:57:59;17.53;;;10.90;;
5085;SDS011;4715;51.660;7.082;2024-03-07T02:00:23;19.60;;;12.03;;
5085;SDS011;4715;51.660;7.082;2024-03-07T02:02:45;16.50;;;10.23;;
5085;SDS011;4715;51.660;7.082;2024-03-07T02:05:07;15.70;;;9.83;;
5085;SDS011;4715;51.660;7.082;2024-03-07T02:07:28;15.47;;;11.10;;
5085;SDS011;4715;51.660;7.082;2024-03-07T02:09:58;17.77;;;11.43;;
5085;SDS011;4715;51.660;7.082;2024-03-07T02:12:20;21.43;;;12.63;;
5085;SDS011;4715;51.660;7.082;2024-03-07T02:14:45;19.57;;;11.70;;
5085;SDS011;4715;51.660;7.082;2024-03-07T02:17:07;16.23;;;11.13;;
5085;SDS011;4715;51.660;7.082;2024-03-07T02:19:29;21.23;;;10.77;;
5085;SDS011;4715;51.660;7.082;2024-03-07T02:21:55;18.97;;;10.80;;
5085;SDS011;4715;51.660;7.082;2024-03-07T02:24:16;15.30;;;10.40;;
5085;SDS011;4715;51.660;7.082;2024-03-07T02:26:39;21.60;;;12.57;;
5085;SDS011;4715;51.660;7.082;2024-03-07T02:29:00;19.23;;;11.20;;
5085;SDS011;4715;51.660;7.082;2024-03-07T02:31:23;16.97;;;10.87;;
5085;SDS011;4715;51.660;7.082;2024-03-07T02:33:55;14.87;;;11.20;;
5085;SDS011;4715;51.660;7.082;2024-03-07T02:36:16;16.73;;;10.60;;
5085;SDS011;4715;51.660;7.082;2024-03-07T02:38:42;13.50;;;9.33;;
5085;SDS011;4715;51.660;7.082;2024-03-07T02:41:04;16.70;;;10.00;;
5085;SDS011;4715;51.660;7.082;2024-03-07T02:43:26;13.57;;;9.17;;
5085;SDS011;4715;51.660;7.082;2024-03-07T02:45:48;21.10;;;11.47;;
5085;SDS011;4715;51.660;7.082;2024-03-07T02:48:10;13.87;;;9.43;;
5085;SDS011;4715;51.660;7.082;2024-03-07T02:50:31;12.63;;;8.83;;
5085;SDS011;4715;51.660;7.082;2024-03-07T02:52:53;13.70;;;9.47;;
5085;SDS011;4715;51.660;7.082;2024-03-07T02:55:16;15.27;;;9.13;;
5085;SDS011;4715;51.660;7.082;2024-03-07T02:57:39;12.97;;;9.60;;
5085;SDS011;4715;51.660;7.082;2024-03-07T03:00:00;11.83;;;8.50;;
5085;SDS011;4715;51.660;7.082;2024-03-07T03:02:23;11.50;;;8.17;;
5085;SDS011;4715;51.660;7.082;2024-03-07T03:04:46;12.70;;;9.03;;
5085;SDS011;4715;51.660;7.082;2024-03-07T03:07:08;15.70;;;10.10;;
5085;SDS011;4715;51.660;7.082;2024-03-07T03:09:28;15.63;;;9.67;;
5085;SDS011;4715;51.660;7.082;2024-03-07T03:11:53;11.43;;;8.50;;
5085;SDS011;4715;51.660;7.082;2024-03-07T03:14:15;15.63;;;10.00;;
5085;SDS011;4715;51.660;7.082;2024-03-07T03:16:37;12.67;;;8.40;;
5085;SDS011;4715;51.660;7.082;2024-03-07T03:19:03;14.63;;;9.43;;
5085;SDS011;4715;51.660;7.082;2024-03-07T03:21:26;10.83;;;8.70;;
5085;SDS011;4715;51.660;7.082;2024-03-07T03:23:51;14.67;;;9.87;;
5085;SDS011;4715;51.660;7.082;2024-03-07T03:26:13;13.60;;;8.87;;
5085;SDS011;4715;51.660;7.082;2024-03-07T03:28:38;14.77;;;9.77;;
5085;SDS011;4715;51.660;7.082;2024-03-07T03:31:01;12.47;;;8.90;;
5085;SDS011;4715;51.660;7.082;2024-03-07T03:33:24;16.63;;;10.97;;
5085;SDS011;4715;51.660;7.082;2024-03-07T03:35:46;14.23;;;10.07;;
5085;SDS011;4715;51.660;7.082;2024-03-07T03:38:08;17.70;;;11.70;;
5085;SDS011;4715;51.660;7.082;2024-03-07T03:40:30;14.17;;;9.13;;
5085;SDS011;4715;51.660;7.082;2024-03-07T03:42:52;16.77;;;10.43;;
5085;SDS011;4715;51.660;7.082;2024-03-07T03:45:15;16.30;;;11.10;;
5085;SDS011;4715;51.660;7.082;2024-03-07T03:47:38;15.47;;;9.37;;
5085;SDS011;4715;51.660;7.082;2024-03-07T03:50:00;16.03;;;10.07;;
5085;SDS011;4715;51.660;7.082;2024-03-07T03:52:21;14.67;;;9.90;;
5085;SDS011;4715;51.660;7.082;2024-03-07T03:54:43;20.10;;;10.93;;
5085;SDS011;4715;51.660;7.082;2024-03-07T03:57:05;18.17;;;11.77;;
5085;SDS011;4715;51.660;7.082;2024-03-07T03:59:27;18.63;;;11.80;;
5085;SDS011;4715;51.660;7.082;2024-03-07T04:01:50;14.63;;;10.90;;
5085;SDS011;4715;51.660;7.082;2024-03-07T04:04:12;13.47;;;9.60;;
5085;SDS011;4715;51.660;7.082;2024-03-07T04:06:34;15.40;;;10.83;;
5085;SDS011;4715;51.660;7.082;2024-03-07T04:08:56;16.03;;;11.30;;
5085;SDS011;4715;51.660;7.082;2024-03-07T04:11:20;18.27;;;11.97;;
5085;SDS011;4715;51.660;7.082;2024-03-07T04:13:42;16.77;;;10.37;;
5085;SDS011;4715;51.660;7.082;2024-03-07T04:16:06;14.10;;;10.10;;
5085;SDS011;4715;51.660;7.082;2024-03-07T04:18:30;14.40;;;9.40;;
5085;SDS011;4715;51.660;7.082;2024-03-07T04:20:52;15.20;;;10.33;;
5085;SDS011;4715;51.660;7.082;2024-03-07T04:23:14;18.93;;;11.33;;
5085;SDS011;4715;51.660;7.082;2024-03-07T04:25:36;15.57;;;11.00;;
5085;SDS011;4715;51.660;7.082;2024-03-07T04:28:01;15.93;;;9.70;;
5085;SDS011;4715;51.660;7.082;2024-03-07T04:30:23;18.50;;;10.37;;
5085;SDS011;4715;51.660;7.082;2024-03-07T04:32:46;14.70;;;9.13;;
5085;SDS011;4715;51.660;7.082;2024-03-07T04:35:09;15.30;;;10.10;;
5085;SDS011;4715;51.660;7.082;2024-03-07T04:37:32;13.90;;;10.00;;
5085;SDS011;4715;51.660;7.082;2024-03-07T04:39:56;15.30;;;9.90;;
5085;SDS011;4715;51.660;7.082;2024-03-07T04:42:18;12.07;;;9.10;;
5085;SDS011;4715;51.660;7.082;2024-03-07T04:44:41;13.50;;;9.37;;
5085;SDS011;4715;51.660;7.082;2024-03-07T04:47:03;10.73;;;8.40;;
5085;SDS011;4715;51.660;7.082;2024-03-07T04:49:27;12.50;;;9.63;;
5085;SDS011;4715;51.660;7.082;2024-03-07T04:51:51;15.00;;;9.23;;
5085;SDS011;4715;51.660;7.082;2024-03-07T04:54:14;13.60;;;9.77;;
5085;SDS011;4715;51.660;7.082;2024-03-07T04:56:36;15.30;;;9.97;;
5085;SDS011;4715;51.660;7.082;2024-03-07T04:59:01;14.97;;;8.93;;
5085;SDS011;4715;51.660;7.082;2024-03-07T05:01:23;12.53;;;9.30;;
5085;SDS011;4715;51.660;7.082;2024-03-07T05:03:46;17.20;;;10.50;;
5085;SDS011;4715;51.660;7.082;2024-03-07T05:06:07;15.53;;;10.10;;
5085;SDS011;4715;51.660;7.082;2024-03-07T05:08:31;12.00;;;8.80;;
5085;SDS011;4715;51.660;7.082;2024-03-07T05:10:53;17.07;;;11.57;;
5085;SDS011;4715;51.660;7.082;2024-03-07T05:13:15;16.70;;;11.37;;
5085;SDS011;4715;51.660;7.082;2024-03-07T05:15:37;16.33;;;10.53;;
5085;SDS011;4715;51.660;7.082;2024-03-07T05:18:02;17.57;;;11.23;;
5085;SDS011;4715;51.660;7.082;2024-03-07T05:20:25;18.37;;;11.27;;
5085;SDS011;4715;51.660;7.082;2024-03-07T05:22:49;15.27;;;10.53;;
5085;SDS011;4715;51.660;7.082;2024-03-07T05:25:14;16.10;;;10.43;;
5085;SDS011;4715;51.660;7.082;2024-03-07T05:27:38;15.70;;;10.93;;
5085;SDS011;4715;51.660;7.082;2024-03-07T05:30:06;11.87;;;8.70;;
5085;SDS011;4715;51.660;7.082;2024-03-07T05:32:31;17.60;;;11.17;;
5085;SDS011;4715;51.660;7.082;2024-03-07T05:34:54;15.13;;;9.23;;
5085;SDS011;4715;51.660;7.082;2024-03-07T05:37:16;14.50;;;10.27;;
5085;SDS011;4715;51.660;7.082;2024-03-07T05:39:41;17.23;;;9.67;;
5085;SDS011;4715;51.660;7.082;2024-03-07T05:42:04;14.10;;;9.40;;
5085;SDS011;4715;51.660;7.082;2024-03-07T05:44:28;14.77;;;9.90;;
5085;SDS011;4715;51.660;7.082;2024-03-07T05:46:50;12.10;;;8.97;;
5085;SDS011;4715;51.660;7.082;2024-03-07T05:49:11;16.33;;;11.10;;
5085;SDS011;4715;51.660;7.082;2024-03-07T05:51:34;13.47;;;8.53;;
5085;SDS011;4715;51.660;7.082;2024-03-07T05:53:56;11.97;;;8.60;;
5085;SDS011;4715;51.660;7.082;2024-03-07T05:56:17;9.77;;;8.57;;
5085;SDS011;4715;51.660;7.082;2024-03-07T05:58:40;14.27;;;9.23;;
5085;SDS011;4715;51.660;7.082;2024-03-07T06:01:02;10.30;;;8.37;;
5085;SDS011;4715;51.660;7.082;2024-03-07T06:03:24;14.90;;;9.53;;
5085;SDS011;4715;51.660;7.082;2024-03-07T06:05:46;17.53;;;10.50;;
5085;SDS011;4715;51.660;7.082;2024-03-07T06:08:09;17.30;;;9.77;;
5085;SDS011;4715;51.660;7.082;2024-03-07T06:10:37;13.93;;;10.60;;
5085;SDS011;4715;51.660;7.082;2024-03-07T06:13:01;13.70;;;10.50;;
5085;SDS011;4715;51.660;7.082;2024-03-07T06:15:25;14.20;;;9.07;;
5085;SDS011;4715;51.660;7.082;2024-03-07T06:17:49;16.47;;;11.30;;
5085;SDS011;4715;51.660;7.082;2024-03-07T06:20:11;18.40;;;12.37;;
5085;SDS011;4715;51.660;7.082;2024-03-07T06:22:42;22.03;;;13.70;;
5085;SDS011;4715;51.660;7.082;2024-03-07T06:25:07;20.87;;;15.00;;
5085;SDS011;4715;51.660;7.082;2024-03-07T06:27:39;18.53;;;12.20;;
5085;SDS011;4715;51.660;7.082;2024-03-07T06:30:09;20.73;;;13.87;;
5085;SDS011;4715;51.660;7.082;2024-03-07T06:32:33;25.10;;;15.13;;
5085;SDS011;4715;51.660;7.082;2024-03-07T06:34:57;17.63;;;14.10;;
5085;SDS011;4715;51.660;7.082;2024-03-07T06:37:21;25.50;;;15.07;;
5085;SDS011;4715;51.660;7.082;2024-03-07T06:39:44;25.83;;;16.87;;
5085;SDS011;4715;51.660;7.082;2024-03-07T06:42:06;23.10;;;15.40;;
5085;SDS011;4715;51.660;7.082;2024-03-07T06:44:28;23.37;;;14.33;;
5085;SDS011;4715;51.660;7.082;2024-03-07T06:46:50;21.53;;;14.00;;
5085;SDS011;4715;51.660;7.082;2024-03-07T06:49:15;19.77;;;14.70;;
5085;SDS011;4715;51.660;7.082;2024-03-07T06:51:37;23.70;;;15.87;;
5085;SDS011;4715;51.660;7.082;2024-03-07T06:54:02;23.63;;;14.97;;
5085;SDS011;4715;51.660;7.082;2024-03-07T06:56:25;23.23;;;14.77;;
5085;SDS011;4715;51.660;7.082;2024-03-07T06:58:47;25.40;;;16.30;;
5085;SDS011;4715;51.660;7.082;2024-03-07T07:01:09;23.50;;;14.03;;
5085;SDS011;4715;51.660;7.082;2024-03-07T07:03:35;21.63;;;14.50;;
5085;SDS011;4715;51.660;7.082;2024-03-07T07:08:37;20.33;;;14.40;;
5085;SDS011;4715;51.660;7.082;2024-03-07T07:10:59;24.10;;;14.83;;
5085;SDS011;4715;51.660;7.082;2024-03-07T07:13:23;22.67;;;14.87;;
5085;SDS011;4715;51.660;7.082;2024-03-07T07:15:45;22.97;;;16.37;;
5085;SDS011;4715;51.660;7.082;2024-03-07T07:18:07;24.07;;;16.43;;
5085;SDS011;4715;51.660;7.082;2024-03-07T07:20:33;27.20;;;16.33;;
5085;SDS011;4715;51.660;7.082;2024-03-07T07:22:57;25.63;;;16.80;;
5085;SDS011;4715;51.660;7.082;2024-03-07T07:25:21;20.67;;;14.90;;
5085;SDS011;4715;51.660;7.082;2024-03-07T07:27:47;18.60;;;14.80;;
5085;SDS011;4715;51.660;7.082;2024-03-07T07:30:11;27.13;;;16.83;;
5085;SDS011;4715;51.660;7.082;2024-03-07T07:32:35;23.27;;;15.60;;
5085;SDS011;4715;51.660;7.082;2024-03-07T07:34:57;21.60;;;15.47;;
5085;SDS011;4715;51.660;7.082;2024-03-07T07:37:19;22.43;;;16.10;;
5085;SDS011;4715;51.660;7.082;2024-03-07T07:39:44;24.50;;;15.77;;
5085;SDS011;4715;51.660;7.082;2024-03-07T07:42:06;22.63;;;16.50;;
5085;SDS011;4715;51.660;7.082;2024-03-07T07:44:29;27.67;;;17.90;;
5085;SDS011;4715;51.660;7.082;2024-03-07T07:46:52;22.40;;;16.80;;
5085;SDS011;4715;51.660;7.082;2024-03-07T07:49:15;28.17;;;17.73;;
5085;SDS011;4715;51.660;7.082;2024-03-07T07:51:38;22.60;;;15.70;;
5085;SDS011;4715;51.660;7.082;2024-03-07T07:54:00;21.40;;;15.57;;
5085;SDS011;4715;51.660;7.082;2024-03-07T07:56:24;21.67;;;14.43;;
5085;SDS011;4715;51.660;7.082;2024-03-07T07:58:48;18.60;;;14.37;;
5085;SDS011;4715;51.660;7.082;2024-03-07T08:01:11;19.17;;;14.03;;
5085;SDS011;4715;51.660;7.082;2024-03-07T08:03:36;24.70;;;15.00;;
5085;SDS011;4715;51.660;7.082;2024-03-07T08:05:58;21.67;;;15.20;;
5085;SDS011;4715;51.660;7.082;2024-03-07T08:08:19;21.00;;;12.97;;
5085;SDS011;4715;51.660;7.082;2024-03-07T08:10:43;17.17;;;12.37;;
5085;SDS011;4715;51.660;7.082;2024-03-07T08:13:07;23.90;;;13.93;;
5085;SDS011;4715;51.660;7.082;2024-03-07T08:15:30;20.90;;;13.50;;
5085;SDS011;4715;51.660;7.082;2024-03-07T08:17:53;17.57;;;12.63;;
5085;SDS011;4715;51.660;7.082;2024-03-07T08:20:18;17.83;;;11.90;;
5085;SDS011;4715;51.660;7.082;2024-03-07T08:22:42;17.07;;;12.40;;
5085;SDS011;4715;51.660;7.082;2024-03-07T08:25:05;16.63;;;12.10;;
5085;SDS011;4715;51.660;7.082;2024-03-07T08:27:29;16.60;;;11.70;;
5085;SDS011;4715;51.660;7.082;2024-03-07T08:29:52;16.67;;;12.47;;
5085;SDS011;4715;51.660;7.082;2024-03-07T08:32:15;15.50;;;11.57;;
5085;SDS011;4715;51.660;7.082;2024-03-07T08:34:36;20.10;;;13.43;;
5085;SDS011;4715;51.660;7.082;2024-03-07T08:36:58;16.40;;;12.53;;
5085;SDS011;4715;51.660;7.082;2024-03-07T08:39:20;23.50;;;15.67;;
5085;SDS011;4715;51.660;7.082;2024-03-07T08:41:43;27.27;;;16.57;;
5085;SDS011;4715;51.660;7.082;2024-03-07T08:44:07;28.77;;;17.67;;
5085;SDS011;4715;51.660;7.082;2024-03-07T08:46:31;31.67;;;17.60;;
5085;SDS011;4715;51.660;7.082;2024-03-07T08:48:54;23.97;;;16.10;;
5085;SDS011;4715;51.660;7.082;2024-03-07T08:51:16;23.97;;;14.73;;
5085;SDS011;4715;51.660;7.082;2024-03-07T08:53:38;21.47;;;15.67;;
5085;SDS011;4715;51.660;7.082;2024-03-07T08:56:00;22.13;;;16.83;;
5085;SDS011;4715;51.660;7.082;2024-03-07T08:58:22;25.20;;;15.10;;
5085;SDS011;4715;51.660;7.082;2024-03-07T09:00:46;26.30;;;16.97;;
5085;SDS011;4715;51.660;7.082;2024-03-07T09:03:10;24.60;;;16.70;;
5085;SDS011;4715;51.660;7.082;2024-03-07T09:05:32;21.60;;;16.00;;
5085;SDS011;4715;51.660;7.082;2024-03-07T09:07:55;23.03;;;16.27;;
5085;SDS011;4715;51.660;7.082;2024-03-07T09:10:17;19.80;;;14.23;;
5085;SDS011;4715;51.660;7.082;2024-03-07T09:12:39;20.53;;;14.20;;
5085;SDS011;4715;51.660;7.082;2024-03-07T09:15:04;24.40;;;13.87;;
5085;SDS011;4715;51.660;7.082;2024-03-07T09:17:26;25.10;;;15.37;;
5085;SDS011;4715;51.660;7.082;2024-03-07T09:19:49;21.90;;;14.80;;
5085;SDS011;4715;51.660;7.082;2024-03-07T09:22:11;23.53;;;14.83;;
5085;SDS011;4715;51.660;7.082;2024-03-07T09:24:33;24.87;;;15.07;;
5085;SDS011;4715;51.660;7.082;2024-03-07T09:26:56;23.73;;;15.30;;
5085;SDS011;4715;51.660;7.082;2024-03-07T09:29:19;20.13;;;14.33;;
5085;SDS011;4715;51.660;7.082;2024-03-07T09:31:42;24.60;;;17.30;;
5085;SDS011;4715;51.660;7.082;2024-03-07T09:34:05;20.10;;;14.00;;
5085;SDS011;4715;51.660;7.082;2024-03-07T09:36:29;21.20;;;15.00;;
5085;SDS011;4715;51.660;7.082;2024-03-07T09:38:52;19.23;;;13.50;;
5085;SDS011;4715;51.660;7.082;2024-03-07T09:41:15;21.07;;;13.60;;
5085;SDS011;4715;51.660;7.082;2024-03-07T09:43:39;17.60;;;11.47;;
5085;SDS011;4715;51.660;7.082;2024-03-07T09:46:03;18.30;;;13.00;;
5085;SDS011;4715;51.660;7.082;2024-03-07T09:48:30;17.03;;;12.10;;
5085;SDS011;4715;51.660;7.082;2024-03-07T09:50:52;21.40;;;12.40;;
5085;SDS011;4715;51.660;7.082;2024-03-07T09:53:23;21.17;;;12.80;;
5085;SDS011;4715;51.660;7.082;2024-03-07T09:55:46;17.60;;;11.77;;
5085;SDS011;4715;51.660;7.082;2024-03-07T09:58:09;16.20;;;11.40;;
5085;SDS011;4715;51.660;7.082;2024-03-07T10:00:55;15.43;;;12.00;;
5085;SDS011;4715;51.660;7.082;2024-03-07T10:03:19;16.07;;;11.20;;
5085;SDS011;4715;51.660;7.082;2024-03-07T10:05:44;12.33;;;11.03;;
5085;SDS011;4715;51.660;7.082;2024-03-07T10:08:08;19.03;;;11.53;;
5085;SDS011;4715;51.660;7.082;2024-03-07T10:10:34;17.77;;;13.27;;
5085;SDS011;4715;51.660;7.082;2024-03-07T10:12:56;21.77;;;13.80;;
5085;SDS011;4715;51.660;7.082;2024-03-07T10:15:20;17.53;;;13.50;;
5085;SDS011;4715;51.660;7.082;2024-03-07T10:17:42;19.37;;;12.60;;
5085;SDS011;4715;51.660;7.082;2024-03-07T10:20:06;20.50;;;12.63;;
5085;SDS011;4715;51.660;7.082;2024-03-07T10:22:33;19.93;;;14.37;;
5085;SDS011;4715;51.660;7.082;2024-03-07T10:24:56;17.63;;;13.97;;
5085;SDS011;4715;51.660;7.082;2024-03-07T10:27:20;23.40;;;15.57;;
5085;SDS011;4715;51.660;7.082;2024-03-07T10:29:42;21.17;;;13.77;;
5085;SDS011;4715;51.660;7.082;2024-03-07T10:32:10;21.50;;;13.87;;
5085;SDS011;4715;51.660;7.082;2024-03-07T10:34:35;23.73;;;14.50;;
5085;SDS011;4715;51.660;7.082;2024-03-07T10:37:00;18.00;;;13.43;;
5085;SDS011;4715;51.660;7.082;2024-03-07T10:39:23;21.27;;;15.13;;
5085;SDS011;4715;51.660;7.082;2024-03-07T10:41:47;25.87;;;14.97;;
5085;SDS011;4715;51.660;7.082;2024-03-07T10:44:12;19.90;;;14.80;;
5085;SDS011;4715;51.660;7.082;2024-03-07T10:46:41;21.77;;;15.17;;
5085;SDS011;4715;51.660;7.082;2024-03-07T10:49:08;20.03;;;14.50;;
5085;SDS011;4715;51.660;7.082;2024-03-07T10:51:37;20.30;;;14.07;;
5085;SDS011;4715;51.660;7.082;2024-03-07T10:54:08;22.40;;;15.97;;
5085;SDS011;4715;51.660;7.082;2024-03-07T10:56:44;22.23;;;14.13;;
5085;SDS011;4715;51.660;7.082;2024-03-07T10:59:22;19.97;;;13.23;;
5085;SDS011;4715;51.660;7.082;2024-03-07T11:01:56;21.40;;;14.40;;
5085;SDS011;4715;51.660;7.082;2024-03-07T11:04:26;14.60;;;12.53;;
5085;SDS011;4715;51.660;7.082;2024-03-07T11:06:49;19.07;;;12.90;;
5085;SDS011;4715;51.660;7.082;2024-03-07T11:09:14;20.40;;;14.33;;
5085;SDS011;4715;51.660;7.082;2024-03-07T11:11:43;21.20;;;14.37;;
5085;SDS011;4715;51.660;7.082;2024-03-07T11:14:05;23.13;;;15.67;;
5085;SDS011;4715;51.660;7.082;2024-03-07T11:16:28;23.03;;;14.30;;
5085;SDS011;4715;51.660;7.082;2024-03-07T11:21:59;25.03;;;15.37;;
5085;SDS011;4715;51.660;7.082;2024-03-07T11:24:25;19.80;;;13.70;;
5085;SDS011;4715;51.660;7.082;2024-03-07T11:26:48;25.93;;;16.93;;
5085;SDS011;4715;51.660;7.082;2024-03-07T11:32:04;21.33;;;15.13;;
5085;SDS011;4715;51.660;7.082;2024-03-07T11:34:29;26.63;;;15.50;;
5085;SDS011;4715;51.660;7.082;2024-03-07T11:36:51;24.47;;;15.23;;
5085;SDS011;4715;51.660;7.082;2024-03-07T11:39:39;20.07;;;14.80;;
5085;SDS011;4715;51.660;7.082;2024-03-07T11:42:02;21.17;;;13.67;;
5085;SDS011;4715;51.660;7.082;2024-03-07T11:44:26;18.20;;;13.67;;
5085;SDS011;4715;51.660;7.082;2024-03-07T11:46:48;20.93;;;14.30;;
5085;SDS011;4715;51.660;7.082;2024-03-07T11:49:12;20.43;;;13.73;;
5085;SDS011;4715;51.660;7.082;2024-03-07T11:51:35;23.03;;;17.03;;
5085;SDS011;4715;51.660;7.082;2024-03-07T11:54:00;20.27;;;15.20;;
5085;SDS011;4715;51.660;7.082;2024-03-07T11:56:22;19.10;;;14.37;;
5085;SDS011;4715;51.660;7.082;2024-03-07T11:58:45;16.87;;;13.57;;
5085;SDS011;4715;51.660;7.082;2024-03-07T12:01:13;24.37;;;17.27;;
5085;SDS011;4715;51.660;7.082;2024-03-07T12:03:38;19.57;;;15.53;;
5085;SDS011;4715;51.660;7.082;2024-03-07T12:06:02;23.20;;;16.30;;
5085;SDS011;4715;51.660;7.082;2024-03-07T12:08:24;21.17;;;14.90;;
5085;SDS011;4715;51.660;7.082;2024-03-07T12:10:48;23.50;;;17.10;;
5085;SDS011;4715;51.660;7.082;2024-03-07T12:15:53;22.50;;;16.80;;
5085;SDS011;4715;51.660;7.082;2024-03-07T12:18:18;20.17;;;14.03;;
5085;SDS011;4715;51.660;7.082;2024-03-07T12:20:44;19.57;;;13.43;;
5085;SDS011;4715;51.660;7.082;2024-03-07T12:23:12;22.70;;;15.10;;
5085;SDS011;4715;51.660;7.082;2024-03-07T12:25:36;21.60;;;14.27;;
5085;SDS011;4715;51.660;7.082;2024-03-07T12:28:00;23.60;;;14.70;;
5085;SDS011;4715;51.660;7.082;2024-03-07T12:30:28;21.20;;;14.33;;
5085;SDS011;4715;51.660;7.082;2024-03-07T12:32:53;23.00;;;15.17;;
5085;SDS011;4715;51.660;7.082;2024-03-07T12:35:15;29.30;;;17.20;;
5085;SDS011;4715;51.660;7.082;2024-03-07T12:37:38;25.23;;;16.30;;
5085;SDS011;4715;51.660;7.082;2024-03-07T12:40:10;28.33;;;15.90;;
5085;SDS011;4715;51.660;7.082;2024-03-07T12:42:37;20.00;;;15.47;;
5085;SDS011;4715;51.660;7.082;2024-03-07T12:45:06;20.77;;;13.97;;
5085;SDS011;4715;51.660;7.082;2024-03-07T12:47:28;19.67;;;14.73;;
5085;SDS011;4715;51.660;7.082;2024-03-07T12:49:52;19.03;;;14.60;;
5085;SDS011;4715;51.660;7.082;2024-03-07T12:52:18;17.83;;;13.60;;
5085;SDS011;4715;51.660;7.082;2024-03-07T12:54:41;20.53;;;14.67;;
5085;SDS011;4715;51.660;7.082;2024-03-07T12:57:09;19.23;;;13.97;;
5085;SDS011;4715;51.660;7.082;2024-03-07T12:59:34;17.80;;;13.50;;
5085;SDS011;4715;51.660;7.082;2024-03-07T13:02:00;17.13;;;13.23;;
5085;SDS011;4715;51.660;7.082;2024-03-07T13:04:22;15.10;;;12.47;;
5085;SDS011;4715;51.660;7.082;2024-03-07T13:06:48;21.80;;;14.10;;
5085;SDS011;4715;51.660;7.082;2024-03-07T13:09:09;15.93;;;12.27;;
5085;SDS011;4715;51.660;7.082;2024-03-07T13:11:31;15.23;;;11.57;;
5085;SDS011;4715;51.660;7.082;2024-03-07T13:14:02;18.10;;;10.87;;
5085;SDS011;4715;51.660;7.082;2024-03-07T13:16:25;17.87;;;12.20;;
5085;SDS011;4715;51.660;7.082;2024-03-07T13:18:49;14.83;;;11.63;;
5085;SDS011;4715;51.660;7.082;2024-03-07T13:21:14;13.27;;;11.23;;
5085;SDS011;4715;51.660;7.082;2024-03-07T13:23:37;13.57;;;10.27;;
5085;SDS011;4715;51.660;7.082;2024-03-07T13:26:01;14.00;;;10.87;;
5085;SDS011;4715;51.660;7.082;2024-03-07T13:28:28;12.90;;;10.23;;
5085;SDS011;4715;51.660;7.082;2024-03-07T13:30:55;14.73;;;10.97;;
5085;SDS011;4715;51.660;7.082;2024-03-07T13:33:18;12.57;;;10.23;;
5085;SDS011;4715;51.660;7.082;2024-03-07T13:35:41;15.80;;;12.67;;
5085;SDS011;4715;51.660;7.082;2024-03-07T13:38:05;15.23;;;12.10;;
5085;SDS011;4715;51.660;7.082;2024-03-07T13:40:28;17.60;;;12.27;;
5085;SDS011;4715;51.660;7.082;2024-03-07T13:42:51;14.13;;;11.90;;
5085;SDS011;4715;51.660;7.082;2024-03-07T13:45:14;14.93;;;10.80;;
5085;SDS011;4715;51.660;7.082;2024-03-07T13:47:38;14.13;;;10.73;;
5085;SDS011;4715;51.660;7.082;2024-03-07T13:50:02;14.80;;;11.37;;
5085;SDS011;4715;51.660;7.082;2024-03-07T13:52:24;14.13;;;10.20;;
5085;SDS011;4715;51.660;7.082;2024-03-07T13:54:48;13.43;;;8.97;;
5085;SDS011;4715;51.660;7.082;2024-03-07T13:57:21;12.37;;;9.20;;
5085;SDS011;4715;51.660;7.082;2024-03-07T14:00:00;11.43;;;9.17;;
5085;SDS011;4715;51.660;7.082;2024-03-07T14:14:20;11.57;;;9.00;;
5085;SDS011;4715;51.660;7.082;2024-03-07T14:17:22;12.73;;;9.70;;
5085;SDS011;4715;51.660;7.082;2024-03-07T14:23:23;11.80;;;8.83;;
5085;SDS011;4715;51.660;7.082;2024-03-07T14:26:03;12.53;;;9.27;;
5085;SDS011;4715;51.660;7.082;2024-03-07T14:29:01;12.83;;;9.20;;
5085;SDS011;4715;51.660;7.082;2024-03-07T14:31:34;12.03;;;8.83;;
5085;SDS011;4715;51.660;7.082;2024-03-07T14:34:06;9.40;;;8.10;;
5085;SDS011;4715;51.660;7.082;2024-03-07T14:36:37;10.90;;;8.80;;
5085;SDS011;4715;51.660;7.082;2024-03-07T14:39:02;9.23;;;8.23;;
5085;SDS011;4715;51.660;7.082;2024-03-07T14:44:19;12.17;;;9.93;;
5085;SDS011;4715;51.660;7.082;2024-03-07T14:46:42;12.47;;;9.23;;
5085;SDS011;4715;51.660;7.082;2024-03-07T14:49:04;11.10;;;9.67;;
5085;SDS011;4715;51.660;7.082;2024-03-07T14:51:31;13.87;;;9.80;;
5085;SDS011;4715;51.660;7.082;2024-03-07T14:53:59;13.57;;;10.07;;
5085;SDS011;4715;51.660;7.082;2024-03-07T14:56:26;12.57;;;9.97;;
5085;SDS011;4715;51.660;7.082;2024-03-07T14:58:48;10.87;;;8.80;;
5085;SDS011;4715;51.660;7.082;2024-03-07T15:01:10;13.27;;;9.53;;